createdAt,value
2018-05-07T00:03:40.472Z,102093.69
2018-05-07T00:08:31.493Z,102088.52
2018-05-07T00:13:22.558Z,102093.90
2018-05-07T00:18:13.586Z,102089.04
2018-05-07T00:23:04.653Z,102091.77
2018-05-07T00:27:55.679Z,102090.11
2018-05-07T00:32:46.762Z,102083.58
2018-05-07T00:37:37.870Z,102085.23
2018-05-07T00:42:28.884Z,102088.06
2018-05-07T00:47:19.988Z,102090.91
2018-05-07T00:52:11.072Z,102097.44
2018-05-07T00:57:02.913Z,102096.02
2018-05-07T01:01:53.940Z,102094.70
2018-05-07T01:06:45.815Z,102092.69
2018-05-07T01:11:36.863Z,102098.92
2018-05-07T01:16:27.933Z,102099.70
2018-05-07T01:21:19.733Z,102101.80
2018-05-07T01:26:10.787Z,102095.50
2018-05-07T01:31:01.791Z,102096.02
2018-05-07T01:35:52.842Z,102093.64
2018-05-07T01:40:44.678Z,102089.52
2018-05-07T01:45:36.825Z,102092.20
2018-05-07T01:50:28.601Z,102102.16
2018-05-07T01:55:19.645Z,102103.06
2018-05-07T02:00:10.799Z,102098.69
2018-05-07T02:05:02.508Z,102101.91
2018-05-07T02:09:53.576Z,102105.27
2018-05-07T02:14:44.596Z,102110.97
2018-05-07T02:19:36.385Z,102110.24
2018-05-07T02:24:27.463Z,102112.34
2018-05-07T02:29:18.531Z,102101.77
2018-05-07T02:34:09.589Z,102107.11
2018-05-07T02:39:00.704Z,102109.07
2018-05-07T02:43:51.648Z,102108.83
2018-05-07T02:48:42.706Z,102107.27
2018-05-07T02:53:33.713Z,102102.50
2018-05-07T02:58:25.572Z,102095.22
2018-05-07T03:03:16.610Z,102087.07
2018-05-07T03:08:07.653Z,102092.77
2018-05-07T03:12:58.757Z,102094.34
2018-05-07T03:17:49.794Z,102090.61
2018-05-07T03:22:40.849Z,102093.47
2018-05-07T03:27:31.878Z,102095.07
2018-05-07T03:32:22.921Z,102094.36
2018-05-07T03:37:14.698Z,102087.34
2018-05-07T03:42:05.792Z,102083.91
2018-05-07T03:46:57.604Z,102084.63
2018-05-07T03:51:48.638Z,102088.31
2018-05-07T03:56:40.462Z,102083.22
2018-05-07T04:01:31.501Z,102082.49
2018-05-07T04:06:23.313Z,102080.94
2018-05-07T04:11:14.365Z,102079.69
2018-05-07T04:16:06.148Z,102066.06
2018-05-07T04:21:10.767Z,102062.56
2018-05-07T04:26:01.818Z,102066.41
2018-05-07T04:30:52.888Z,102067.73
2018-05-07T04:35:44.101Z,102070.84
2018-05-07T04:40:35.144Z,102076.04
2018-05-07T04:45:26.926Z,102073.33
2018-05-07T04:50:17.969Z,102067.25
2018-05-07T04:55:09.051Z,102071.88
2018-05-07T05:00:00.093Z,102067.39
2018-05-07T05:04:51.120Z,102070.77
2018-05-07T05:09:42.192Z,102072.38
2018-05-07T05:14:33.227Z,102076.62
2018-05-07T05:19:25.021Z,102070.83
2018-05-07T05:24:16.109Z,102073.05
2018-05-07T05:29:07.148Z,102072.37
2018-05-07T05:33:58.201Z,102066.34
2018-05-07T05:38:49.269Z,102065.09
2018-05-07T05:43:41.165Z,102066.45
2018-05-07T05:48:32.885Z,102070.08
2018-05-07T05:53:23.928Z,102077.23
2018-05-07T05:58:15.001Z,102081.05
2018-05-07T06:03:06.801Z,102077.56
2018-05-07T06:07:57.873Z,102078.77
2018-05-07T06:12:49.677Z,102074.02
2018-05-07T06:17:40.705Z,102070.95
2018-05-07T06:22:31.821Z,102069.42
2018-05-07T06:27:22.848Z,102066.41
2018-05-07T06:32:14.000Z,102061.18
2018-05-07T06:37:05.852Z,102063.89
2018-05-07T06:41:57.629Z,102064.22
2018-05-07T06:46:48.716Z,102060.68
2018-05-07T06:51:39.773Z,102060.33
2018-05-07T06:56:30.879Z,102057.23
2018-05-07T07:01:21.923Z,102066.13
2018-05-07T07:06:12.944Z,102049.38
2018-05-07T07:11:04.009Z,102042.53
2018-05-07T07:15:55.097Z,102032.34
2018-05-07T07:20:46.181Z,102038.67
2018-05-07T07:25:37.983Z,102038.19
2018-05-07T07:30:29.028Z,102026.09
2018-05-07T07:35:20.086Z,102026.87
2018-05-07T07:40:11.859Z,102036.01
2018-05-07T07:45:02.884Z,102035.56
2018-05-07T07:49:53.960Z,102033.27
2018-05-07T07:54:45.743Z,102040.55
2018-05-07T07:59:36.761Z,102033.97
2018-05-07T08:04:27.789Z,102036.09
2018-05-07T08:09:18.835Z,102030.02
2018-05-07T08:14:09.892Z,102024.30
2018-05-07T08:19:00.968Z,102024.20
2018-05-07T08:23:52.040Z,102021.63
2018-05-07T08:28:43.840Z,102020.50
2018-05-07T08:33:34.879Z,102013.09
2018-05-07T08:38:25.997Z,102009.21
2018-05-07T08:43:17.021Z,102003.55
2018-05-07T08:48:08.050Z,102006.98
2018-05-07T08:52:59.155Z,102003.73
2018-05-07T08:57:50.906Z,101995.79
2018-05-07T09:02:41.957Z,101999.22
2018-05-07T09:07:33.056Z,102002.30
2018-05-07T09:12:24.093Z,101988.45
2018-05-07T09:17:15.270Z,101991.02
2018-05-07T09:22:06.306Z,101983.17
2018-05-07T09:26:57.332Z,101985.58
2018-05-07T09:31:48.369Z,101979.70
2018-05-07T09:36:39.475Z,101972.64
2018-05-07T09:41:30.506Z,101968.80
2018-05-07T09:46:21.541Z,101964.64
2018-05-07T09:51:12.575Z,101958.75
2018-05-07T09:56:03.620Z,101957.58
2018-05-07T10:00:54.687Z,101953.93
2018-05-07T10:05:45.716Z,101942.91
2018-05-07T10:10:36.774Z,101948.39
2018-05-07T10:15:27.817Z,101942.97
2018-05-07T10:20:19.609Z,101937.48
2018-05-07T10:25:10.646Z,101935.20
2018-05-07T10:30:01.734Z,101931.13
2018-05-07T10:34:52.797Z,101928.78
2018-05-07T10:39:43.874Z,101923.91
2018-05-07T10:44:34.909Z,101925.27
2018-05-07T10:49:25.955Z,101922.34
2018-05-07T10:54:17.724Z,101914.72
2018-05-07T10:59:08.762Z,101900.34
2018-05-07T11:04:00.543Z,101906.70
2018-05-07T11:08:51.614Z,101901.03
2018-05-07T11:13:42.635Z,101895.35
2018-05-07T11:18:33.672Z,101898.06
2018-05-07T11:23:25.593Z,101895.72
2018-05-07T11:28:16.636Z,101881.98
2018-05-07T11:33:08.412Z,101884.73
2018-05-07T11:37:59.517Z,101871.59
2018-05-07T11:42:51.339Z,101871.89
2018-05-07T11:47:42.419Z,101867.31
2018-05-07T11:52:34.145Z,101859.76
2018-05-07T11:57:25.156Z,101860.86
2018-05-07T12:02:16.181Z,101852.03
2018-05-07T12:07:07.276Z,101852.03
2018-05-07T12:11:59.063Z,101835.95
2018-05-07T12:16:50.096Z,101840.84
2018-05-07T12:21:41.165Z,101831.10
2018-05-07T12:26:32.942Z,101815.22
2018-05-07T12:31:23.991Z,101830.73
2018-05-07T12:36:15.043Z,101809.34
2018-05-07T12:41:06.119Z,101810.08
2018-05-07T12:45:57.142Z,101798.86
2018-05-07T12:50:48.196Z,101796.41
2018-05-07T12:55:39.260Z,101790.89
2018-05-07T13:00:30.313Z,101787.61
2018-05-07T13:05:21.343Z,101774.41
2018-05-07T13:10:12.394Z,101772.14
2018-05-07T13:15:03.422Z,101767.69
2018-05-07T13:19:54.485Z,101754.17
2018-05-07T13:24:45.524Z,101749.42
2018-05-07T13:29:36.600Z,101740.28
2018-05-07T13:34:27.687Z,101740.09
2018-05-07T13:39:18.709Z,101738.02
2018-05-07T13:44:09.769Z,101724.38
2018-05-07T13:49:01.640Z,101723.22
2018-05-07T13:53:52.691Z,101722.19
2018-05-07T13:58:43.752Z,101720.95
2018-05-07T14:03:34.815Z,101708.30
2018-05-07T14:08:26.654Z,101710.31
2018-05-07T14:13:17.692Z,101703.00
2018-05-07T14:18:08.706Z,101700.11
2018-05-07T14:22:59.761Z,101702.44
2018-05-07T14:27:50.813Z,101689.66
2018-05-07T14:32:41.940Z,101685.67
2018-05-07T14:37:33.755Z,101670.43
2018-05-07T14:42:24.796Z,101676.92
2018-05-07T14:47:15.824Z,101673.33
2018-05-07T14:52:06.926Z,101671.10
2018-05-07T14:56:57.962Z,101669.34
2018-05-07T15:01:49.030Z,101658.38
2018-05-07T15:06:40.843Z,101661.53
2018-05-07T15:11:31.901Z,101652.77
2018-05-07T15:16:22.964Z,101648.06
2018-05-07T15:21:14.020Z,101642.95
2018-05-07T15:26:05.888Z,101637.61
2018-05-07T15:30:56.938Z,101639.40
2018-05-07T15:35:48.014Z,101629.38
2018-05-07T15:40:39.850Z,101637.27
2018-05-07T15:45:30.872Z,101627.70
2018-05-07T15:50:21.951Z,101619.42
2018-05-07T15:55:12.985Z,101617.33
2018-05-07T16:00:04.068Z,101618.09
2018-05-07T16:04:55.108Z,101615.71
2018-05-07T16:09:46.980Z,101619.21
2018-05-07T16:14:38.034Z,101614.74
2018-05-07T16:19:29.111Z,101608.31
2018-05-07T16:24:20.153Z,101604.27
2018-05-07T16:29:11.204Z,101603.37
2018-05-07T16:34:02.970Z,101600.08
2018-05-07T16:38:54.064Z,101601.65
2018-05-07T16:43:45.868Z,101597.98
2018-05-07T16:48:37.008Z,101592.39
2018-05-07T16:53:28.000Z,101589.22
2018-05-07T16:58:19.055Z,101578.80
2018-05-07T17:03:10.114Z,101581.16
2018-05-07T17:08:01.929Z,101577.21
2018-05-07T17:12:52.955Z,101573.95
2018-05-07T17:17:44.012Z,101563.20
2018-05-07T17:22:35.800Z,101569.88
2018-05-07T17:27:26.906Z,101570.08
2018-05-07T17:32:17.945Z,101574.34
2018-05-07T17:37:08.964Z,101574.05
2018-05-07T17:42:00.041Z,101577.21
2018-05-07T17:47:10.689Z,101569.66
2018-05-07T17:52:01.746Z,101572.77
2018-05-07T17:56:53.520Z,101568.88
2018-05-07T18:01:44.601Z,101574.41
2018-05-07T18:06:36.397Z,101571.46
2018-05-07T18:11:27.447Z,101563.84
2018-05-07T18:16:18.609Z,101566.06
2018-05-07T18:21:09.726Z,101555.67
2018-05-07T18:26:00.736Z,101560.97
2018-05-07T18:30:52.525Z,101563.69
2018-05-07T18:35:43.554Z,101563.05
2018-05-07T18:40:34.661Z,101567.37
2018-05-07T18:45:25.706Z,101572.27
2018-05-07T18:50:16.798Z,101566.41
2018-05-07T18:55:07.833Z,101564.57
2018-05-07T18:59:58.860Z,101557.73
2018-05-07T19:04:51.354Z,101559.11
2018-05-07T19:09:42.408Z,101561.80
2018-05-07T19:14:34.228Z,101567.33
2018-05-07T19:19:25.268Z,101561.03
2018-05-07T19:24:17.032Z,101566.73
2018-05-07T19:29:08.065Z,101567.90
2018-05-07T19:33:59.124Z,101564.60
2018-05-07T19:38:50.190Z,101565.43
2018-05-07T19:43:41.226Z,101566.55
2018-05-07T19:48:33.100Z,101563.77
2018-05-07T19:53:24.845Z,101563.16
2018-05-07T19:58:15.881Z,101561.30
2018-05-07T20:03:06.955Z,101566.09
2018-05-07T20:07:58.027Z,101562.66
2018-05-07T20:12:49.069Z,101559.02
2018-05-07T20:17:40.839Z,101562.30
2018-05-07T20:22:31.980Z,101547.14
2018-05-07T20:27:23.109Z,101551.75
2018-05-07T20:32:14.173Z,101544.08
2018-05-07T20:37:05.231Z,101547.20
2018-05-07T20:41:56.277Z,101547.64
2018-05-07T20:46:47.348Z,101541.98
2018-05-07T20:51:39.155Z,101542.77
2018-05-07T20:56:30.212Z,101541.22
2018-05-07T21:01:21.428Z,101547.61
2018-05-07T21:06:12.512Z,101542.06
2018-05-07T21:11:03.565Z,101536.31
2018-05-07T21:15:54.658Z,101541.38
2018-05-07T21:20:45.669Z,101531.52
2018-05-07T21:25:36.788Z,101533.03
2018-05-07T21:30:27.743Z,101535.00
2018-05-07T21:35:18.820Z,101540.84
2018-05-07T21:40:10.625Z,101532.27
2018-05-07T21:45:01.710Z,101534.60
2018-05-07T21:49:52.769Z,101544.63
2018-05-07T21:54:43.800Z,101548.22
2018-05-07T21:59:34.871Z,101545.78
2018-05-07T22:04:25.910Z,101539.77
2018-05-07T22:09:16.943Z,101542.92
2018-05-07T22:14:07.995Z,101544.58
2018-05-07T22:18:59.027Z,101532.43
2018-05-07T22:23:50.105Z,101530.39
2018-05-07T22:28:41.164Z,101524.50
2018-05-07T22:33:32.236Z,101534.47
2018-05-07T22:38:24.009Z,101531.73
2018-05-07T22:43:15.035Z,101529.93
2018-05-07T22:48:06.080Z,101533.47
2018-05-07T22:52:57.112Z,101528.81
2018-05-07T22:57:48.138Z,101535.61
2018-05-07T23:02:39.177Z,101537.09
2018-05-07T23:07:30.973Z,101537.33
2018-05-07T23:12:22.007Z,101536.50
2018-05-07T23:17:13.063Z,101526.73
2018-05-07T23:22:04.951Z,101528.56
2018-05-07T23:26:56.049Z,101529.36
2018-05-07T23:31:47.868Z,101524.67
2018-05-07T23:36:39.685Z,101518.08
2018-05-07T23:41:30.716Z,101518.47
2018-05-07T23:46:22.515Z,101513.09
2018-05-07T23:51:13.576Z,101511.27
2018-05-07T23:56:04.678Z,101515.86
